createdAt,value
2018-09-10T00:00:20.484Z,70.00
2018-09-10T00:10:08.430Z,72.30
2018-09-10T00:12:35.378Z,73.70
2018-09-10T00:15:02.321Z,73.80
2018-09-10T00:17:29.248Z,72.00
2018-09-10T00:19:56.207Z,72.90
2018-09-10T00:22:23.142Z,73.30
2018-09-10T00:24:50.077Z,75.10
2018-09-10T00:29:49.292Z,77.20
2018-09-10T00:32:16.236Z,78.10
2018-09-10T00:37:23.687Z,78.20
2018-09-10T00:39:53.565Z,76.70
2018-09-10T00:42:20.529Z,77.00
2018-09-10T00:44:50.591Z,75.40
2018-09-10T00:47:17.557Z,75.80
2018-09-10T00:49:48.125Z,75.50
2018-09-10T00:52:15.674Z,76.30
2018-09-10T00:54:42.607Z,75.20
2018-09-10T00:57:09.553Z,75.30
2018-09-10T00:59:39.625Z,75.10
2018-09-10T01:02:06.592Z,76.10
2018-09-10T01:04:33.537Z,78.70
2018-09-10T01:07:00.457Z,78.70
2018-09-10T01:09:27.416Z,78.90
2018-09-10T01:11:54.376Z,79.60
2018-09-10T01:14:21.311Z,79.30
2018-09-10T01:16:48.299Z,78.80
2018-09-10T01:19:15.231Z,79.00
2018-09-10T01:21:42.159Z,79.30
2018-09-10T01:24:09.122Z,79.30
2018-09-10T01:26:36.045Z,79.20
2018-09-10T01:29:02.999Z,79.00
2018-09-10T01:33:56.983Z,78.40
2018-09-10T01:36:23.920Z,79.70
2018-09-10T01:38:50.874Z,80.40
2018-09-10T01:41:17.819Z,81.60
2018-09-10T01:48:44.948Z,81.10
2018-09-10T01:51:11.881Z,82.10
2018-09-10T01:53:38.832Z,82.50
2018-09-10T01:58:46.237Z,83.10
2018-09-10T02:01:15.044Z,82.10
2018-09-10T02:03:40.105Z,81.10
2018-09-10T02:06:07.056Z,80.80
2018-09-10T02:08:34.015Z,81.40
2018-09-10T02:11:00.950Z,81.90
2018-09-10T02:13:27.892Z,82.40
2018-09-10T02:15:54.848Z,82.10
2018-09-10T02:18:21.785Z,82.40
2018-09-10T02:20:48.738Z,82.80
2018-09-10T02:23:16.111Z,82.80
2018-09-10T02:25:43.041Z,82.90
2018-09-10T02:28:09.998Z,83.20
2018-09-10T02:30:36.943Z,83.50
2018-09-10T02:33:03.889Z,84.10
2018-09-10T02:35:35.083Z,83.70
2018-09-10T02:38:00.076Z,84.50
2018-09-10T02:40:32.075Z,84.90
2018-09-10T02:42:59.054Z,85.00
2018-09-10T02:45:25.991Z,85.90
2018-09-10T02:47:52.940Z,85.80
2018-09-10T02:50:19.887Z,85.00
2018-09-10T02:52:46.837Z,85.20
2018-09-10T02:55:13.856Z,85.20
2018-09-10T03:00:07.809Z,85.60
2018-09-10T03:02:34.738Z,85.50
2018-09-10T03:05:01.684Z,85.50
2018-09-10T03:07:28.628Z,85.30
2018-09-10T03:09:55.576Z,84.70
2018-09-10T03:12:22.513Z,86.40
2018-09-10T03:14:52.437Z,85.50
2018-09-10T03:17:16.390Z,85.50
2018-09-10T03:22:23.243Z,84.10
2018-09-10T03:24:50.205Z,84.30
2018-09-10T03:27:17.133Z,83.80
2018-09-10T03:29:44.077Z,83.90
2018-09-10T03:32:12.198Z,83.80
2018-09-10T03:34:39.162Z,84.10
2018-09-10T03:37:06.109Z,84.40
2018-09-10T03:39:33.058Z,84.60
2018-09-10T03:42:00.040Z,84.90
2018-09-10T03:44:27.149Z,87.10
2018-09-10T03:46:54.089Z,87.30
2018-09-10T03:49:21.054Z,88.60
2018-09-10T03:51:47.996Z,89.00
2018-09-10T03:54:14.948Z,89.20
2018-09-10T03:59:25.072Z,89.60
2018-09-10T04:01:52.007Z,89.30
2018-09-10T04:04:18.959Z,87.40
2018-09-10T04:09:34.880Z,87.50
2018-09-10T04:12:01.840Z,87.40
2018-09-10T04:14:28.779Z,87.50
2018-09-10T04:16:55.746Z,87.40
2018-09-10T04:19:22.682Z,88.30
2018-09-10T04:21:53.210Z,88.80
2018-09-10T04:24:20.157Z,88.70
2018-09-10T04:26:47.098Z,88.30
2018-09-10T04:29:14.037Z,88.60
2018-09-10T04:31:40.977Z,89.10
2018-09-10T04:34:10.925Z,89.60
2018-09-10T04:36:37.860Z,90.30
2018-09-10T04:41:32.401Z,89.90
2018-09-10T04:46:45.137Z,91.00
2018-09-10T04:49:13.606Z,90.90
2018-09-10T04:51:40.585Z,89.60
2018-09-10T04:54:07.528Z,89.30
2018-09-10T04:56:34.484Z,89.10
2018-09-10T04:59:01.427Z,89.40
2018-09-10T05:01:28.381Z,89.10
2018-09-10T05:03:55.340Z,89.90
2018-09-10T05:06:22.290Z,90.90
2018-09-10T05:08:49.226Z,91.80
2018-09-10T05:13:48.971Z,94.10
2018-09-10T05:16:15.915Z,93.80
2018-09-10T05:18:42.848Z,95.20
2018-09-10T05:21:09.806Z,95.60
2018-09-10T05:23:36.738Z,95.50
2018-09-10T05:26:04.809Z,95.90
2018-09-10T05:28:31.772Z,95.30
2018-09-10T05:30:58.722Z,94.40
2018-09-10T05:33:25.658Z,94.90
2018-09-10T05:35:52.604Z,93.40
2018-09-10T05:38:19.559Z,94.30
2018-09-10T05:40:46.504Z,92.90
2018-09-10T05:43:13.443Z,93.30
2018-09-10T05:45:40.408Z,94.40
2018-09-10T05:48:07.372Z,93.90
2018-09-10T05:50:35.945Z,92.60
2018-09-10T05:53:02.962Z,91.20
2018-09-10T05:55:29.884Z,89.00
2018-09-10T05:57:56.815Z,88.50
2018-09-10T06:05:38.042Z,89.80
2018-09-10T06:08:02.295Z,88.20
2018-09-10T06:12:56.380Z,83.50
2018-09-10T06:15:23.196Z,82.30
2018-09-10T06:17:53.083Z,82.00
2018-09-10T06:20:20.030Z,80.40
2018-09-10T06:22:50.430Z,79.90
2018-09-10T06:25:17.386Z,80.50
2018-09-10T06:27:44.327Z,79.30
2018-09-10T06:30:11.290Z,77.50
2018-09-10T06:32:38.208Z,78.00
2018-09-10T06:35:05.513Z,74.00
2018-09-10T06:37:32.554Z,74.80
2018-09-10T06:39:59.517Z,73.40
2018-09-10T06:42:26.459Z,75.70
2018-09-10T06:44:53.410Z,74.20
2018-09-10T06:47:20.366Z,68.70
2018-09-10T06:49:52.964Z,74.10
2018-09-10T06:52:19.910Z,74.00
2018-09-10T06:54:48.628Z,76.60
2018-09-10T06:57:15.591Z,71.70
2018-09-10T06:59:42.547Z,73.60
2018-09-10T07:02:09.491Z,72.60
2018-09-10T07:04:38.377Z,61.70
2018-09-10T07:07:03.434Z,69.30
2018-09-10T07:09:30.375Z,64.80
2018-09-10T07:11:57.306Z,66.60
2018-09-10T07:14:26.210Z,68.60
2018-09-10T07:16:54.853Z,74.40
2018-09-10T07:19:21.792Z,76.40
2018-09-10T07:24:18.658Z,73.40
2018-09-10T07:29:24.384Z,73.60
2018-09-10T07:32:00.607Z,69.20
2018-09-10T07:34:24.889Z,69.30
2018-09-10T07:36:55.947Z,64.00
2018-09-10T07:42:10.510Z,64.00
2018-09-10T07:44:43.331Z,64.80
2018-09-10T07:47:07.177Z,65.00
2018-09-10T07:49:35.667Z,65.80
2018-09-10T07:52:04.288Z,63.50
2018-09-10T07:57:16.901Z,56.90
2018-09-10T07:59:45.894Z,54.20
2018-09-10T08:02:13.461Z,51.40
2018-09-10T08:09:53.443Z,47.00
2018-09-10T08:12:21.429Z,50.70
2018-09-10T08:14:49.552Z,47.70
2018-09-10T08:17:17.186Z,51.30
2018-09-10T08:19:46.112Z,48.40
2018-09-10T08:22:15.064Z,48.60
2018-09-10T08:24:43.070Z,47.00
2018-09-10T08:27:10.499Z,46.40
2018-09-10T08:34:48.605Z,44.70
2018-09-10T08:39:42.726Z,44.80
2018-09-10T08:42:09.879Z,42.40
2018-09-10T08:44:36.837Z,38.80
2018-09-10T08:47:03.770Z,42.20
2018-09-10T08:49:30.710Z,41.10
2018-09-10T08:51:57.650Z,34.60
2018-09-10T08:54:24.792Z,34.20
2018-09-10T08:56:51.541Z,37.20
2018-09-10T08:59:20.784Z,34.80
2018-09-10T09:01:47.726Z,35.00
2018-09-10T09:04:15.544Z,32.80
2018-09-10T09:06:42.499Z,31.60
2018-09-10T09:09:11.027Z,36.50
2018-09-10T09:11:37.991Z,34.00
2018-09-10T09:14:04.935Z,34.90
2018-09-10T09:16:31.907Z,30.30
2018-09-10T09:18:58.843Z,28.20
2018-09-10T09:21:25.772Z,29.10
2018-09-10T09:23:52.731Z,30.30
2018-09-10T09:26:23.041Z,30.00
2018-09-10T09:28:50.001Z,25.80
2018-09-10T09:31:16.966Z,27.80
2018-09-10T09:33:43.906Z,25.20
2018-09-10T09:36:14.262Z,24.90
2018-09-10T09:38:41.187Z,26.40
2018-09-10T09:41:08.131Z,25.40
2018-09-10T09:46:07.105Z,23.00
2018-09-10T09:48:34.005Z,20.50
2018-09-10T09:51:00.983Z,25.30
2018-09-10T09:53:27.899Z,21.30
2018-09-10T09:55:55.023Z,20.70
2018-09-10T10:03:30.919Z,18.50
2018-09-10T10:05:57.893Z,18.40
2018-09-10T10:08:24.834Z,18.80
2018-09-10T10:10:51.789Z,18.00
2018-09-10T10:13:18.723Z,16.70
2018-09-10T10:15:45.673Z,19.10
2018-09-10T10:18:12.617Z,19.40
2018-09-10T10:20:41.414Z,16.50
2018-09-10T10:23:08.369Z,16.70
2018-09-10T10:25:38.233Z,18.80
2018-09-10T10:28:05.218Z,17.10
2018-09-10T10:30:36.957Z,16.30
2018-09-10T10:33:03.895Z,16.00
2018-09-10T10:35:31.262Z,16.30
2018-09-10T10:37:58.212Z,15.20
2018-09-10T10:40:25.157Z,16.60
2018-09-10T10:42:52.093Z,14.20
2018-09-10T10:45:19.043Z,13.10
2018-09-10T10:47:47.343Z,13.30
2018-09-10T10:50:14.295Z,11.90
2018-09-10T10:52:41.246Z,12.60
2018-09-10T11:00:17.136Z,11.70
2018-09-10T11:02:44.072Z,12.60
2018-09-10T11:05:11.026Z,10.80
2018-09-10T11:07:37.967Z,11.00
2018-09-10T11:12:31.954Z,9.20
2018-09-10T11:17:28.097Z,9.90
2018-09-10T11:19:55.029Z,9.30
2018-09-10T11:22:22.000Z,9.30
2018-09-10T11:24:48.926Z,9.00
2018-09-10T11:27:15.865Z,10.00
2018-09-10T11:29:42.811Z,9.50
2018-09-10T11:32:09.758Z,8.10
2018-09-10T11:34:36.707Z,8.90
2018-09-10T11:37:03.661Z,6.70
2018-09-10T11:39:30.637Z,9.50
2018-09-10T11:41:57.556Z,4.60
2018-09-10T11:44:24.501Z,6.30
2018-09-10T11:46:51.449Z,5.10
2018-09-10T11:49:18.394Z,4.70
2018-09-10T11:51:45.345Z,6.40
2018-09-10T11:54:12.283Z,7.30
2018-09-10T11:56:39.233Z,6.50
2018-09-10T11:59:06.159Z,3.00
2018-09-10T12:01:33.140Z,2.70
2018-09-10T12:04:00.045Z,2.70
2018-09-10T12:06:26.997Z,2.80
2018-09-10T12:08:53.919Z,5.20
2018-09-10T12:11:20.869Z,3.40
2018-09-10T12:13:49.163Z,4.00
2018-09-10T12:16:16.109Z,1.30
2018-09-10T12:21:21.495Z,1.70
2018-09-10T12:23:48.424Z,2.60
2018-09-10T12:26:15.373Z,1.00
2018-09-10T12:28:42.302Z,1.00
2018-09-10T12:31:12.271Z,1.70
2018-09-10T12:33:39.198Z,1.00
2018-09-10T12:38:49.964Z,1.00
2018-09-10T12:41:16.921Z,1.00
2018-09-10T12:43:43.892Z,1.00
2018-09-10T12:46:10.822Z,1.00
2018-09-10T12:48:37.765Z,1.00
2018-09-10T12:53:31.783Z,1.00
2018-09-10T12:55:58.757Z,1.00
2018-09-10T12:58:25.697Z,1.00
2018-09-10T13:00:53.054Z,1.00
2018-09-10T13:03:19.996Z,1.50
2018-09-10T13:08:26.873Z,1.00
2018-09-10T13:10:53.790Z,2.10
2018-09-10T13:13:20.719Z,3.00
2018-09-10T13:15:47.662Z,1.00
2018-09-10T13:18:14.621Z,1.00
2018-09-10T13:20:44.763Z,1.00
2018-09-10T13:23:11.683Z,1.00
2018-09-10T13:25:38.633Z,1.60
2018-09-10T13:28:05.565Z,1.70
2018-09-10T13:30:32.509Z,1.00
2018-09-10T13:32:59.457Z,1.10
2018-09-10T13:35:28.416Z,1.70
2018-09-10T13:37:55.362Z,2.00
2018-09-10T13:40:22.304Z,2.20
2018-09-10T13:42:49.242Z,1.80
2018-09-10T13:45:16.195Z,1.00
2018-09-10T13:47:43.130Z,1.00
2018-09-10T13:50:10.074Z,1.50
2018-09-10T13:52:37.002Z,1.50
2018-09-10T13:55:03.942Z,1.90
2018-09-10T13:57:31.296Z,1.50
2018-09-10T13:59:58.231Z,1.40
2018-09-10T14:02:25.166Z,1.50
2018-09-10T14:04:52.115Z,1.60
2018-09-10T14:07:19.068Z,1.00
2018-09-10T14:09:45.997Z,1.00
2018-09-10T14:12:12.945Z,1.10
2018-09-10T14:17:20.340Z,2.70
2018-09-10T14:19:47.335Z,1.00
2018-09-10T14:22:14.275Z,1.10
2018-09-10T14:24:41.203Z,1.80
2018-09-10T14:27:09.456Z,1.50
2018-09-10T14:29:36.365Z,1.00
2018-09-10T14:32:03.328Z,1.00
2018-09-10T14:34:30.333Z,1.10
2018-09-10T14:36:57.236Z,1.00
2018-09-10T14:39:24.185Z,2.30
2018-09-10T14:41:51.139Z,2.20
2018-09-10T14:44:18.063Z,2.90
2018-09-10T14:46:44.992Z,2.10
2018-09-10T14:49:11.943Z,1.70
2018-09-10T14:51:38.888Z,2.10
2018-09-10T14:54:05.836Z,2.30
2018-09-10T14:56:37.947Z,2.50
2018-09-10T14:59:04.888Z,2.90
2018-09-10T15:01:31.830Z,1.80
2018-09-10T15:03:58.770Z,1.30
2018-09-10T15:06:25.694Z,1.20
2018-09-10T15:08:52.648Z,1.00
2018-09-10T15:11:19.586Z,1.40
2018-09-10T15:13:46.538Z,1.00
2018-09-10T15:16:13.465Z,2.00
2018-09-10T15:18:41.371Z,2.50
2018-09-10T15:21:08.311Z,3.00
2018-09-10T15:26:08.025Z,3.00
2018-09-10T15:28:34.933Z,3.50
2018-09-10T15:31:01.880Z,3.80
2018-09-10T15:33:28.804Z,5.60
2018-09-10T15:35:55.753Z,5.60
2018-09-10T15:38:22.706Z,6.10
2018-09-10T15:43:28.093Z,5.90
2018-09-10T15:45:58.943Z,5.10
2018-09-10T15:48:25.892Z,5.00
2018-09-10T15:50:52.849Z,7.50
2018-09-10T15:53:19.796Z,7.80
2018-09-10T15:55:47.089Z,7.80
2018-09-10T15:58:14.017Z,6.80
2018-09-10T16:00:40.966Z,7.90
2018-09-10T16:03:07.918Z,7.70
2018-09-10T16:05:34.852Z,7.80
2018-09-10T16:08:01.804Z,8.60
2018-09-10T16:10:28.742Z,9.50
2018-09-10T16:12:55.708Z,10.40
2018-09-10T16:15:22.637Z,10.30
2018-09-10T16:17:49.582Z,9.80
2018-09-10T16:20:16.515Z,11.60
2018-09-10T16:22:45.005Z,11.50
2018-09-10T16:25:11.983Z,12.10
2018-09-10T16:30:07.539Z,11.30
2018-09-10T16:32:34.471Z,11.30
2018-09-10T16:35:01.663Z,11.30
2018-09-10T16:37:29.085Z,12.00
2018-09-10T16:39:56.038Z,13.60
2018-09-10T16:42:22.999Z,13.20
2018-09-10T16:44:49.933Z,13.40
2018-09-10T16:47:16.901Z,13.00
2018-09-10T16:49:46.043Z,14.10
2018-09-10T16:52:12.987Z,13.90
2018-09-10T16:54:39.981Z,14.70
2018-09-10T16:57:06.886Z,14.20
2018-09-10T16:59:33.840Z,14.40
2018-09-10T17:02:01.355Z,14.30
2018-09-10T17:04:28.236Z,14.10
2018-09-10T17:06:55.190Z,14.60
2018-09-10T17:12:00.579Z,14.90
2018-09-10T17:14:27.562Z,14.10
2018-09-10T17:16:54.495Z,13.30
2018-09-10T17:19:21.856Z,14.40
2018-09-10T17:21:48.827Z,15.30
2018-09-10T17:24:15.770Z,15.70
2018-09-10T17:26:42.741Z,15.30
2018-09-10T17:31:49.470Z,15.00
2018-09-10T17:34:16.586Z,15.60
2018-09-10T17:36:43.524Z,15.70
2018-09-10T17:39:10.471Z,15.60
2018-09-10T17:41:37.397Z,16.10
2018-09-10T17:44:04.560Z,16.70
2018-09-10T17:46:31.507Z,16.00
2018-09-10T17:48:58.464Z,16.20
2018-09-10T17:51:25.599Z,17.20
2018-09-10T17:53:52.757Z,16.50
2018-09-10T17:56:20.425Z,16.90
2018-09-10T17:58:47.362Z,17.70
2018-09-10T18:01:14.467Z,17.60
2018-09-10T18:03:41.399Z,17.70
2018-09-10T18:06:08.338Z,17.90
2018-09-10T18:08:35.512Z,17.90
2018-09-10T18:11:03.923Z,17.90
2018-09-10T18:13:30.864Z,18.30
2018-09-10T18:15:57.973Z,18.50
2018-09-10T18:18:24.917Z,18.20
2018-09-10T18:23:35.378Z,18.60
2018-09-10T18:26:02.470Z,19.10
2018-09-10T18:28:29.942Z,19.20
2018-09-10T18:30:57.420Z,20.60
2018-09-10T18:33:24.498Z,19.20
2018-09-10T18:35:52.059Z,20.40
2018-09-10T18:38:22.888Z,20.00
2018-09-10T18:40:49.617Z,20.70
2018-09-10T18:43:16.564Z,20.80
2018-09-10T18:45:43.501Z,21.00
2018-09-10T18:48:10.686Z,21.50
2018-09-10T18:50:37.797Z,22.70
2018-09-10T18:53:09.587Z,22.10
2018-09-10T18:55:34.904Z,21.80
2018-09-10T19:00:49.865Z,22.80
2018-09-10T19:03:16.766Z,22.90
2018-09-10T19:05:43.729Z,24.60
2018-09-10T19:08:10.685Z,24.00
2018-09-10T19:10:37.752Z,23.70
2018-09-10T19:13:04.698Z,24.00
2018-09-10T19:15:31.845Z,24.50
2018-09-10T19:17:59.036Z,24.60
2018-09-10T19:22:53.003Z,26.10
2018-09-10T19:25:20.113Z,27.10
2018-09-10T19:27:47.162Z,27.50
2018-09-10T19:30:14.090Z,27.70
2018-09-10T19:32:41.032Z,27.10
2018-09-10T19:35:07.976Z,28.00
2018-09-10T19:37:35.142Z,28.50
2018-09-10T19:40:02.043Z,28.20
2018-09-10T19:42:29.058Z,27.10
2018-09-10T19:44:56.017Z,27.70
2018-09-10T19:47:22.966Z,26.40
2018-09-10T19:52:17.060Z,26.90
2018-09-10T19:54:43.972Z,26.50
2018-09-10T19:57:10.921Z,26.80
2018-09-10T19:59:38.266Z,25.50
2018-09-10T20:02:05.469Z,25.80
2018-09-10T20:04:33.162Z,26.70
2018-09-10T20:07:01.195Z,27.00
2018-09-10T20:09:28.307Z,27.40
2018-09-10T20:11:56.695Z,27.90
2018-09-10T20:14:23.921Z,28.30
2018-09-10T20:16:51.243Z,28.40
2018-09-10T20:19:19.965Z,27.80
2018-09-10T20:24:27.244Z,28.90
2018-09-10T20:29:21.069Z,28.20
2018-09-10T20:31:48.014Z,27.70
2018-09-10T20:34:14.968Z,27.40
2018-09-10T20:36:41.926Z,27.80
2018-09-10T20:39:08.862Z,28.10
2018-09-10T20:41:35.897Z,27.80
2018-09-10T20:46:29.860Z,28.80
2018-09-10T20:48:56.786Z,28.60
2018-09-10T20:51:23.738Z,28.60
2018-09-10T20:53:50.679Z,29.40
2018-09-10T20:56:17.634Z,29.90
2018-09-10T20:58:44.559Z,29.30
2018-09-10T21:01:11.476Z,29.40
2018-09-10T21:03:38.425Z,27.50
2018-09-10T21:06:05.355Z,27.50
2018-09-10T21:08:32.760Z,27.70
2018-09-10T21:10:59.355Z,28.20
2018-09-10T21:13:26.295Z,28.20
2018-09-10T21:15:53.251Z,28.80
2018-09-10T21:18:20.183Z,29.00
2018-09-10T21:20:47.130Z,28.40
2018-09-10T21:23:14.082Z,27.30
2018-09-10T21:25:41.057Z,27.80
2018-09-10T21:28:07.980Z,29.00
2018-09-10T21:30:34.921Z,29.90
2018-09-10T21:33:01.910Z,28.50
2018-09-10T21:35:28.829Z,28.80
2018-09-10T21:37:55.836Z,29.80
2018-09-10T21:40:22.766Z,30.00
2018-09-10T21:42:49.708Z,30.00
2018-09-10T21:50:22.170Z,29.20
2018-09-10T21:52:49.124Z,30.20
2018-09-10T21:55:16.093Z,30.00
2018-09-10T21:57:43.032Z,31.00
2018-09-10T22:02:36.997Z,31.10
2018-09-10T22:05:03.925Z,31.50
2018-09-10T22:07:30.873Z,33.50
2018-09-10T22:09:57.879Z,33.70
2018-09-10T22:12:24.748Z,34.80
2018-09-10T22:14:51.712Z,36.00
2018-09-10T22:17:18.654Z,36.50
2018-09-10T22:19:45.600Z,38.60
2018-09-10T22:22:12.529Z,41.20
2018-09-10T22:24:39.547Z,44.30
2018-09-10T22:27:06.420Z,56.70
2018-09-10T22:29:33.373Z,60.20
2018-09-10T22:32:00.319Z,61.20
2018-09-10T22:34:27.240Z,59.70
2018-09-10T22:36:54.190Z,62.90
2018-09-10T22:39:21.114Z,62.20
2018-09-10T22:41:48.064Z,61.60
2018-09-10T22:44:15.055Z,60.60
2018-09-10T22:46:41.947Z,61.20
2018-09-10T22:49:08.901Z,60.90
2018-09-10T22:51:35.827Z,60.10
2018-09-10T22:54:02.778Z,62.40
2018-09-10T22:56:29.726Z,61.20
2018-09-10T22:58:56.663Z,61.00
2018-09-10T23:01:23.593Z,61.80
2018-09-10T23:03:50.547Z,62.10
2018-09-10T23:06:17.469Z,61.70
2018-09-10T23:11:22.855Z,61.30
2018-09-10T23:13:49.798Z,62.00
2018-09-10T23:16:16.725Z,62.00
2018-09-10T23:18:43.673Z,61.40
2018-09-10T23:21:10.627Z,62.40
2018-09-10T23:23:37.554Z,63.80
2018-09-10T23:26:04.477Z,64.00
2018-09-10T23:28:31.428Z,64.00
2018-09-10T23:30:58.372Z,64.70
2018-09-10T23:35:52.354Z,65.10
2018-09-10T23:40:46.318Z,65.60
2018-09-10T23:43:13.257Z,64.50
2018-09-10T23:45:40.204Z,65.40
2018-09-10T23:48:07.130Z,66.00
2018-09-10T23:50:34.074Z,65.40
2018-09-10T23:53:01.014Z,65.20
2018-09-10T23:55:27.963Z,64.80
2018-09-10T23:57:54.908Z,65.60
